x

Ilm3 - 27 Miles Se Of Wrightsville Beach, Nc (41037) Weather Station

7:08pm - Sat 27th Aug 2016 All times are EDT. -4 hours from GMT.

  • Wind
    9mph, 13mph gusts
  • Sea Temp 85°f
  • 空気 Temp 83°f
  • Sea Pressure 1017.2mb
  • Ilm3 - 27 Miles Se Of Wrightsville Beach, Nc
  • Ilm3 - 27 Miles Se Of Wrightsville Beach, Nc

More Historic Weather Station data

Upgrade to MSW Pro to gain access to the past 30 days of data for over 8000 Wavebouys and Weather Stations around the globe.

Join Pro

Comparision Forecast

View Surf forecast
   
Sat 08/27 7:08pm 9 13 mph 1017.2mb 85f 83f
6:08pm 9 13 mph 1017.5mb 85f 84f
5:08pm 7 11 mph 1018.1mb 85f 84f
4:08pm 7 11 mph 1018.4mb 85f 83f
3:08pm 7 11 mph 1018.7mb 84f 83f
2:08pm 7 11 mph 1019.3mb 85f 83f
1:08pm 7 11 mph 1019.6mb 84f 83f
12:08pm 7 11 mph 1019.8mb 84f 83f
11:08am 9 11 mph 1019.9mb 84f 83f
10:08am 9 11 mph 1019.8mb 84f 83f
9:08am 9 11 mph 1019.5mb 84f 83f
8:08am 7 11 mph 1019.3mb 84f 83f
7:08am 4 9 mph 1019mb 84f 82f
6:08am 4 7 mph 1018.6mb 84f 82f
5:08am 4 7 mph 1018.5mb 84f 82f
4:08am 4 7 mph 1018.6mb 84f 82f
3:08am 4 9 mph 1018.8mb 84f 82f
2:08am 7 11 mph 1018.8mb 84f 82f
1:08am 7 11 mph 1018.7mb 84f 82f
12:08am 7 11 mph 1018.6mb 84f 82f
Fri 08/26 11:08pm 9 13 mph 1018.5mb 84f 82f
10:08pm 9 13 mph 1018.3mb 84f 82f
9:08pm 9 13 mph 1018.1mb 84f 82f
8:08pm 9 13 mph 1017.8mb 84f 82f
7:08pm 7 11 mph 1017.6mb 84f 83f
6:08pm 7 9 mph 1017.7mb 85f 83f
5:08pm 4 7 mph 1017.8mb 85f 83f
4:08pm 4 9 mph 1018.2mb 84f 83f
3:08pm 4 11 mph 1018.6mb 84f 83f
2:08pm 4 7 mph 1019.6mb 84f 83f
1:08pm 4 7 mph 1019.6mb 83f 82f
12:08pm 2 7 mph 1020mb 83f 82f
11:08am 4 7 mph 1020.1mb 83f 82f
10:08am 4 7 mph 1019.9mb 82f 82f
9:08am 4 7 mph 1019.8mb 82f 82f
8:08am 4 7 mph 1019.8mb 82f 83f
7:08am 2 4 mph 1019.6mb 82f 82f
6:08am 2 4 mph 1018.9mb 82f 81f
5:08am 2
mph
1018.8mb 82f 81f
4:08am 2 4 mph 1018.9mb 82f 81f
3:08am 4 7 mph 1018.9mb 83f 81f
2:08am 4 9 mph 1018.9mb 83f 82f
1:08am 7 11 mph 1018.8mb 83f 82f
12:08am 7 11 mph 1018.8mb 83f 82f
Thu 08/25 11:08pm 9 13 mph 1019mb 83f 82f
10:08pm 9 11 mph 1019.2mb 83f 82f
9:08pm 9 13 mph 1019.3mb 83f 82f
8:08pm 9 11 mph 1019.1mb 83f 82f
7:08pm 7 9 mph 1018.9mb 83f 82f
6:08pm 7 11 mph 1018.9mb 83f 83f
5:08pm 7 11 mph 1019.1mb 83f 83f
3:08pm 9 13 mph 1019.9mb 83f 82f
2:08pm 11 16 mph 1020.6mb 83f 82f
1:08pm 9 13 mph 1021.2mb 83f 82f
12:08pm 11 13 mph 1021.7mb 83f 82f
11:08am 11 16 mph 1021.7mb 83f 82f
10:08am 11 16 mph 1021.6mb 83f 82f
9:08am 9 13 mph 1021.5mb 84f 82f
8:08am 9 13 mph 1021mb 84f 82f
7:08am 7 11 mph 1020.8mb 84f 82f
6:08am 9 11 mph 1020.2mb 84f 81f
5:08am 7 11 mph 1020.1mb 84f 82f
4:08am 11 16 mph 1020.1mb 84f 82f
3:08am 11 16 mph 1020.4mb 84f 82f
2:08am 13 18 mph 1020.8mb 84f 82f
1:08am 11 18 mph 1021.3mb 84f 82f
12:08am 13 18 mph 1021.6mb 84f 82f
Wed 08/24 11:08pm 11 13 mph 1022.1mb 84f 82f
10:08pm 11 18 mph 1022mb 84f 82f
9:08pm 11 16 mph 1021.8mb 84f 81f
8:08pm 13 18 mph 1021.9mb 84f 81f
7:08pm 13 18 mph 1021.8mb 84f 82f
6:08pm 11 16 mph 1022.1mb 84f 82f
5:08pm 11 16 mph 1022.1mb 84f 81f
4:08pm 11 18 mph 1022.7mb 84f 81f
2:08pm 13 18 mph 1023.8mb 84f 79f
1:08pm 11 18 mph 1024.2mb 84f 79f
12:08pm 13 20 mph 1024.6mb 84f 78f
11:08am 13 20 mph 1024.8mb 84f 78f
10:08am 16 20 mph 1024.7mb 84f 79f
9:08am 16 20 mph 1024.5mb 84f 79f
8:08am 16 22 mph 1024.1mb 84f 79f
7:08am 16 20 mph 1023.9mb 84f 80f
6:08am 16 20 mph 1023.5mb 84f 81f
5:08am 16 20 mph 1023.2mb 84f 81f
4:08am 16 22 mph 1023.2mb 84f 81f
3:08am 16 22 mph 1023.4mb 84f 81f
2:08am 16 22 mph 1023.6mb 84f 81f
1:08am 16 22 mph 1024mb 84f 81f